Time;durP1;ratioP1;P1;durP2;ratioP2;P2;SDS_P1;SDS_P2;PMS_P1;PMS_P2;Temp;Humidity;BMP_temperature;BMP_pressure;BME280_temperature;BME280_humidity;BME280_pressure;Samples;Min_cycle;Max_cycle;Signal;HPM_P1;HPM_P2
2023/03/02 00:02:21;;;;;;;25.13;16.33;;;3.60;99.90;;;;;;4977497;28;20031;-78
2023/03/02 00:04:51;;;;;;;25.10;17.23;;;3.70;99.90;;;;;;4975040;28;20027;-79
2023/03/02 00:07:23;;;;;;;27.13;17.07;;;3.70;99.90;;;;;;4975802;28;20027;-78
2023/03/02 00:09:49;;;;;;;23.57;16.37;;;3.50;99.90;;;;;;4992493;28;20417;-79
2023/03/02 00:12:15;;;;;;;24.90;16.77;;;3.60;99.90;;;;;;4977111;28;20054;-78
2023/03/02 00:14:41;;;;;;;25.23;15.50;;;3.70;99.90;;;;;;4993065;28;20034;-78
2023/03/02 00:17:09;;;;;;;23.47;17.20;;;3.70;99.90;;;;;;4985769;28;20038;-78
2023/03/02 00:19:35;;;;;;;22.17;16.67;;;3.70;99.90;;;;;;4991438;28;20030;-78
2023/03/02 00:22:02;;;;;;;23.33;17.03;;;3.70;99.90;;;;;;4992336;28;20046;-78
2023/03/02 00:24:28;;;;;;;23.40;16.97;;;3.80;99.90;;;;;;4985515;28;20035;-78
2023/03/02 00:26:54;;;;;;;24.27;15.73;;;3.70;99.90;;;;;;4984230;28;20038;-78
2023/03/02 00:29:20;;;;;;;23.07;16.77;;;3.70;99.90;;;;;;5009852;28;20046;-78
2023/03/02 00:31:46;;;;;;;27.17;17.33;;;3.70;99.90;;;;;;4989192;28;20053;-78
2023/03/02 00:34:12;;;;;;;24.00;15.63;;;3.60;99.90;;;;;;4996876;28;20038;-78
2023/03/02 00:36:39;;;;;;;23.57;15.73;;;3.70;99.90;;;;;;5001342;28;20403;-79
2023/03/02 00:39:05;;;;;;;23.67;16.77;;;3.80;99.90;;;;;;4974731;28;20027;-78
2023/03/02 00:41:31;;;;;;;26.03;16.43;;;3.80;99.90;;;;;;4983074;28;20042;-78
2023/03/02 00:43:57;;;;;;;27.97;16.23;;;3.80;99.90;;;;;;4991898;28;20026;-78
2023/03/02 00:46:23;;;;;;;25.10;16.90;;;3.80;99.90;;;;;;4980604;28;20041;-78
2023/03/02 00:48:50;;;;;;;23.00;15.97;;;3.90;99.90;;;;;;4992753;28;20099;-78
2023/03/02 00:51:16;;;;;;;23.23;16.47;;;3.90;99.90;;;;;;4986970;28;20047;-78
2023/03/02 00:53:42;;;;;;;25.93;17.30;;;4.00;99.90;;;;;;4973328;28;20034;-78
2023/03/02 00:56:09;;;;;;;23.07;17.37;;;4.00;99.90;;;;;;4984527;28;20038;-78
2023/03/02 00:58:35;;;;;;;23.93;16.77;;;4.00;99.90;;;;;;4991738;28;20503;-78
2023/03/02 01:01:09;;;;;;;23.43;16.00;;;4.00;99.90;;;;;;4976894;28;20045;-79
2023/03/02 01:03:35;;;;;;;26.83;15.90;;;4.00;99.90;;;;;;4992652;28;20384;-79
2023/03/02 01:06:02;;;;;;;22.43;15.80;;;4.00;99.90;;;;;;4989039;28;20038;-78
2023/03/02 01:08:28;;;;;;;28.03;17.17;;;4.00;99.90;;;;;;4994978;28;20038;-78
2023/03/02 01:10:54;;;;;;;23.67;16.97;;;4.00;99.90;;;;;;4993385;28;20018;-78
2023/03/02 01:13:20;;;;;;;28.33;17.47;;;4.00;99.90;;;;;;4992477;28;20026;-78
2023/03/02 01:15:46;;;;;;;23.83;16.80;;;4.00;99.90;;;;;;4987873;28;20035;-78
2023/03/02 01:18:12;;;;;;;23.30;15.47;;;4.00;99.90;;;;;;4974023;28;20031;-79
2023/03/02 01:20:38;;;;;;;23.10;16.17;;;4.00;99.90;;;;;;4981447;28;20042;-78
2023/03/02 01:23:04;;;;;;;22.37;16.20;;;4.00;99.90;;;;;;4990546;28;20042;-78
2023/03/02 01:25:30;;;;;;;20.97;15.70;;;3.80;99.90;;;;;;4991526;28;20034;-78
2023/03/02 01:27:57;;;;;;;25.37;16.80;;;3.80;99.90;;;;;;4979730;28;20043;-78
2023/03/02 01:30:23;;;;;;;23.87;16.13;;;3.90;99.90;;;;;;4971902;28;20508;-78
2023/03/02 01:32:49;;;;;;;22.63;16.23;;;3.90;99.90;;;;;;4979454;28;20046;-78
2023/03/02 01:35:15;;;;;;;20.70;15.73;;;3.90;99.90;;;;;;4986784;28;20049;-78
2023/03/02 01:37:41;;;;;;;23.20;16.43;;;3.90;99.90;;;;;;4976192;28;20027;-78
2023/03/02 01:40:09;;;;;;;24.20;16.60;;;3.80;99.90;;;;;;4975638;28;20403;-78
2023/03/02 01:42:44;;;;;;;23.83;15.73;;;3.70;99.90;;;;;;4992232;28;20409;-78
2023/03/02 01:45:52;;;;;;;22.97;15.63;;;3.60;99.90;;;;;;4991311;28;20026;-78
2023/03/02 01:48:25;;;;;;;24.43;16.40;;;3.60;99.90;;;;;;4978567;28;20041;-78
2023/03/02 01:50:52;;;;;;;25.37;15.27;;;3.50;99.90;;;;;;4962798;28;20019;-79
2023/03/02 01:53:18;;;;;;;22.27;16.33;;;3.60;99.90;;;;;;4972272;28;20037;-78
2023/03/02 01:55:44;;;;;;;24.70;17.03;;;3.60;99.90;;;;;;4983720;28;20034;-79
2023/03/02 01:58:12;;;;;;;21.37;16.00;;;3.50;99.90;;;;;;4977446;28;20042;-79
2023/03/02 02:00:38;;;;;;;24.77;16.07;;;3.40;99.90;;;;;;4980764;28;20038;-79
2023/03/02 02:03:08;;;;;;;23.20;15.73;;;3.40;99.90;;;;;;4972013;28;20027;-78
2023/03/02 02:05:38;;;;;;;24.37;16.47;;;3.30;99.90;;;;;;4978278;28;20022;-79
2023/03/02 02:08:04;;;;;;;22.10;15.07;;;3.30;99.90;;;;;;4977264;28;20035;-78
2023/03/02 02:10:31;;;;;;;24.70;16.77;;;3.20;99.90;;;;;;4972236;28;20035;-79
2023/03/02 02:12:57;;;;;;;25.73;16.60;;;3.10;99.90;;;;;;4959006;28;20421;-78
2023/03/02 02:15:24;;;;;;;25.70;16.97;;;3.10;99.90;;;;;;4984266;28;20047;-78
2023/03/02 02:17:53;;;;;;;22.77;16.33;;;3.10;99.90;;;;;;4974137;28;20379;-78
2023/03/02 02:20:41;;;;;;;24.10;16.73;;;3.20;99.90;;;;;;4977127;28;20034;-79
2023/03/02 02:23:13;;;;;;;22.80;16.10;;;3.30;99.90;;;;;;4970921;28;20038;-78
2023/03/02 02:25:43;;;;;;;26.80;15.83;;;3.30;99.90;;;;;;4981875;28;20030;-79
2023/03/02 02:28:21;;;;;;;22.60;15.63;;;3.20;99.90;;;;;;4990128;28;20029;-78
2023/03/02 02:30:49;;;;;;;22.83;16.07;;;2.90;99.90;;;;;;4999101;28;20410;-79
2023/03/02 02:33:17;;;;;;;22.10;15.73;;;3.10;99.90;;;;;;4988284;28;20034;-78
2023/03/02 02:35:45;;;;;;;22.53;15.00;;;3.00;99.90;;;;;;4998096;28;20023;-78
2023/03/02 02:38:11;;;;;;;21.70;15.97;;;3.00;99.90;;;;;;4993598;28;20038;-79
2023/03/02 02:40:57;;;;;;;25.70;16.57;;;3.10;99.90;;;;;;4974435;28;20109;-79
2023/03/02 02:43:23;;;;;;;25.67;16.00;;;3.00;99.90;;;;;;4991555;28;20045;-78
2023/03/02 02:45:54;;;;;;;24.13;16.63;;;3.00;99.90;;;;;;4993217;28;20038;-78
2023/03/02 02:48:23;;;;;;;23.13;16.00;;;3.00;99.90;;;;;;4977754;28;20034;-79
2023/03/02 02:50:52;;;;;;;23.27;16.07;;;3.10;99.90;;;;;;4985314;28;20031;-79
2023/03/02 02:53:23;;;;;;;24.37;15.97;;;3.10;99.90;;;;;;4977976;28;20043;-79
2023/03/02 02:55:50;;;;;;;24.00;17.20;;;3.20;99.90;;;;;;4986811;28;20026;-79
2023/03/02 02:58:26;;;;;;;24.23;16.73;;;3.20;99.90;;;;;;4981292;28;20129;-80
2023/03/02 03:00:53;;;;;;;25.67;16.70;;;3.20;99.90;;;;;;4985314;28;20053;-79
2023/03/02 03:03:31;;;;;;;23.30;14.50;;;3.10;99.90;;;;;;4988246;28;20034;-79
2023/03/02 03:05:58;;;;;;;24.30;15.90;;;3.10;99.90;;;;;;4988622;28;20392;-78
2023/03/02 03:08:47;;;;;;;23.77;16.03;;;3.00;99.90;;;;;;4985661;28;20034;-79
2023/03/02 03:11:18;;;;;;;23.57;16.30;;;3.10;99.90;;;;;;4961960;28;20046;-78
2023/03/02 03:13:44;;;;;;;22.05;16.02;;;3.10;99.90;;;;;;4982216;28;20042;-78
2023/03/02 03:16:13;;;;;;;26.23;14.67;;;3.10;99.90;;;;;;4960483;28;20038;-79
2023/03/02 03:18:42;;;;;;;21.73;16.50;;;3.20;99.90;;;;;;4976223;28;20034;-79
2023/03/02 03:21:08;;;;;;;26.20;16.90;;;3.20;99.90;;;;;;4972019;28;20039;-78
2023/03/02 03:23:37;;;;;;;28.93;16.47;;;3.20;99.90;;;;;;4961964;28;20054;-78
2023/03/02 03:26:06;;;;;;;21.07;15.17;;;3.20;99.90;;;;;;4973123;28;20027;-79
2023/03/02 03:28:32;;;;;;;24.97;15.63;;;3.20;99.90;;;;;;4975685;28;20411;-79
2023/03/02 03:30:58;;;;;;;27.50;17.37;;;3.00;99.90;;;;;;4991389;28;20038;-79
2023/03/02 03:33:24;;;;;;;22.00;14.93;;;3.00;99.90;;;;;;4971934;28;20058;-79
2023/03/02 03:35:50;;;;;;;27.53;16.90;;;3.10;99.90;;;;;;4994108;28;20034;-78
2023/03/02 03:38:17;;;;;;;24.10;15.97;;;2.90;99.90;;;;;;4991320;28;20391;-79
2023/03/02 03:40:43;;;;;;;27.57;17.40;;;2.90;99.90;;;;;;4985012;28;20115;-79
2023/03/02 03:43:11;;;;;;;24.47;16.83;;;3.00;99.90;;;;;;4983356;28;20049;-78
2023/03/02 03:45:37;;;;;;;25.43;17.60;;;3.00;99.90;;;;;;4986499;28;20062;-79
2023/03/02 03:48:03;;;;;;;26.60;16.10;;;3.00;99.90;;;;;;5010072;28;20509;-78
2023/03/02 03:50:29;;;;;;;23.30;15.53;;;3.00;99.90;;;;;;4973321;28;20345;-79
2023/03/02 03:52:55;;;;;;;24.80;16.33;;;2.90;99.90;;;;;;4976287;28;20043;-79
2023/03/02 03:55:22;;;;;;;30.50;16.13;;;2.90;99.90;;;;;;4974234;28;20035;-78
2023/03/02 03:57:48;;;;;;;23.93;15.93;;;2.80;99.90;;;;;;4988445;28;20038;-78
2023/03/02 04:00:16;;;;;;;25.83;15.43;;;2.70;99.90;;;;;;4985281;28;20034;-79
2023/03/02 04:02:42;;;;;;;21.77;14.97;;;2.60;99.90;;;;;;4959877;28;20038;-79
2023/03/02 04:05:08;;;;;;;22.93;16.07;;;2.40;99.90;;;;;;4978050;28;20128;-79
2023/03/02 04:07:35;;;;;;;22.97;15.33;;;2.50;99.90;;;;;;4974414;28;20065;-78
2023/03/02 04:10:04;;;;;;;24.07;15.63;;;2.50;99.90;;;;;;4975093;28;20030;-78
2023/03/02 04:12:31;;;;;;;25.07;15.13;;;2.50;99.90;;;;;;4967124;28;20062;-78
2023/03/02 04:14:57;;;;;;;22.20;14.73;;;2.50;99.90;;;;;;4988427;28;20026;-78
2023/03/02 04:17:23;;;;;;;26.13;14.93;;;2.50;99.90;;;;;;4975684;28;20050;-77
2023/03/02 04:19:49;;;;;;;25.83;15.87;;;2.50;99.90;;;;;;4977191;28;20037;-78
2023/03/02 04:22:16;;;;;;;24.27;16.40;;;2.50;99.90;;;;;;4992212;28;20049;-77
2023/03/02 04:24:42;;;;;;;24.13;15.50;;;2.50;99.90;;;;;;4991571;28;20026;-76
2023/03/02 04:27:08;;;;;;;21.43;14.20;;;2.60;99.90;;;;;;4994287;28;20030;-76
2023/03/02 04:29:35;;;;;;;21.27;14.00;;;2.60;99.90;;;;;;4960201;28;20042;-76
2023/03/02 04:32:01;;;;;;;22.77;15.17;;;2.60;99.90;;;;;;4991651;28;20061;-76
2023/03/02 04:34:27;;;;;;;21.83;14.77;;;2.60;99.90;;;;;;4983590;28;20094;-77
2023/03/02 04:36:53;;;;;;;22.67;14.27;;;2.60;99.90;;;;;;4997586;28;20037;-76
2023/03/02 04:39:19;;;;;;;21.53;14.83;;;2.60;99.90;;;;;;4987706;28;20388;-77
2023/03/02 04:41:46;;;;;;;21.27;14.47;;;2.50;99.90;;;;;;4992845;28;20388;-76
2023/03/02 04:44:12;;;;;;;24.80;15.60;;;2.50;99.90;;;;;;4994729;28;20034;-75
2023/03/02 04:46:39;;;;;;;21.80;15.10;;;2.50;99.90;;;;;;4989508;28;20031;-77
2023/03/02 04:49:05;;;;;;;20.50;14.23;;;2.50;99.90;;;;;;4984064;28;20031;-77
2023/03/02 04:51:34;;;;;;;19.77;14.67;;;2.60;99.90;;;;;;4991147;28;20030;-77
2023/03/02 04:54:02;;;;;;;23.90;15.60;;;2.50;99.90;;;;;;4992324;28;20042;-79
2023/03/02 04:56:28;;;;;;;21.67;14.97;;;2.60;99.90;;;;;;4991288;28;20490;-79
2023/03/02 04:58:54;;;;;;;24.90;15.47;;;2.50;99.90;;;;;;4975833;28;20034;-78
2023/03/02 05:01:21;;;;;;;19.97;14.47;;;2.50;99.90;;;;;;4991391;28;20034;-79
2023/03/02 05:03:47;;;;;;;19.03;14.03;;;2.50;99.90;;;;;;4991611;28;20027;-78
2023/03/02 05:06:13;;;;;;;18.97;13.60;;;2.50;99.90;;;;;;4975674;28;20034;-78
2023/03/02 05:08:39;;;;;;;23.33;14.93;;;2.50;99.90;;;;;;4987163;28;20023;-78
2023/03/02 05:11:06;;;;;;;22.93;15.67;;;2.50;99.90;;;;;;4992602;28;20030;-78
2023/03/02 05:13:33;;;;;;;24.10;13.93;;;2.30;99.90;;;;;;4992999;28;20463;-78
2023/03/02 05:15:59;;;;;;;27.53;16.23;;;2.40;99.90;;;;;;4975126;28;20211;-79
2023/03/02 05:18:25;;;;;;;304.83;36.87;;;2.40;99.90;;;;;;4991200;28;20042;-78
2023/03/02 05:20:52;;;;;;;45.13;17.67;;;2.50;99.90;;;;;;4993060;28;20042;-78
2023/03/02 05:23:25;;;;;;;40.40;20.13;;;2.50;99.90;;;;;;4991196;28;20380;-78
2023/03/02 05:25:52;;;;;;;49.87;19.40;;;2.40;99.90;;;;;;4976657;28;20054;-79
2023/03/02 05:28:19;;;;;;;28.87;16.60;;;2.50;99.90;;;;;;4975564;28;20506;-78
2023/03/02 05:30:45;;;;;;;30.43;18.77;;;2.40;99.90;;;;;;4970966;28;20038;-79
2023/03/02 05:33:11;;;;;;;24.90;16.60;;;2.30;99.90;;;;;;4988652;28;20515;-78
2023/03/02 05:35:37;;;;;;;23.80;16.67;;;2.30;99.90;;;;;;4975488;28;20060;-79
2023/03/02 05:38:04;;;;;;;24.70;16.37;;;2.30;99.90;;;;;;4996731;28;20045;-79
2023/03/02 05:40:30;;;;;;;26.40;17.50;;;2.20;99.90;;;;;;4984748;28;20026;-78
2023/03/02 05:42:56;;;;;;;194.53;24.43;;;2.20;99.90;;;;;;4976555;28;20045;-78
2023/03/02 05:45:33;;;;;;;27.93;17.37;;;2.20;99.90;;;;;;4992060;28;20046;-79
2023/03/02 05:48:00;;;;;;;25.20;15.83;;;2.20;99.90;;;;;;4991989;28;20456;-78
2023/03/02 05:50:26;;;;;;;25.40;18.33;;;2.20;99.90;;;;;;4972994;28;20039;-78
2023/03/02 05:52:52;;;;;;;24.13;15.87;;;2.20;99.90;;;;;;4972862;28;20399;-79
2023/03/02 05:55:18;;;;;;;26.83;16.20;;;2.20;99.90;;;;;;4973988;28;20034;-78
2023/03/02 05:57:44;;;;;;;26.80;17.60;;;2.20;99.90;;;;;;4976407;28;20472;-78
2023/03/02 06:00:12;;;;;;;42.73;21.90;;;2.20;99.90;;;;;;4956129;28;20050;-78
2023/03/02 06:02:38;;;;;;;1083.33;64.60;;;2.10;99.90;;;;;;4988142;28;20034;-78
2023/03/02 06:05:06;;;;;;;76.17;17.40;;;2.20;99.90;;;;;;4983019;28;20045;-78
2023/03/02 06:07:32;;;;;;;23.67;14.63;;;2.10;99.90;;;;;;4994307;28;20026;-78
2023/03/02 06:09:58;;;;;;;27.77;16.77;;;2.10;99.90;;;;;;4966659;28;20039;-79
2023/03/02 06:12:24;;;;;;;24.43;16.13;;;2.10;99.90;;;;;;4983810;28;20604;-78
2023/03/02 06:14:50;;;;;;;24.27;17.00;;;2.10;99.90;;;;;;4984497;28;20023;-78
2023/03/02 06:17:16;;;;;;;33.17;20.17;;;2.10;99.90;;;;;;4994831;28;20506;-79
2023/03/02 06:19:42;;;;;;;129.30;23.80;;;2.10;99.90;;;;;;4978986;28;20037;-79
2023/03/02 06:22:08;;;;;;;82.80;20.90;;;2.10;99.90;;;;;;4997127;28;20408;-78
2023/03/02 06:24:34;;;;;;;669.47;45.67;;;2.10;99.90;;;;;;5001379;28;20046;-78
2023/03/02 06:27:01;;;;;;;26.33;17.20;;;2.10;99.90;;;;;;4995855;28;20034;-79
2023/03/02 06:29:27;;;;;;;25.23;16.37;;;2.10;99.90;;;;;;4995423;28;20045;-79
2023/03/02 06:31:53;;;;;;;29.50;17.23;;;2.10;99.90;;;;;;4989013;28;20038;-79
2023/03/02 06:34:19;;;;;;;25.83;15.87;;;2.10;99.90;;;;;;5002025;28;20495;-79
2023/03/02 06:36:45;;;;;;;27.50;17.50;;;2.10;99.90;;;;;;5014880;28;20030;-79
2023/03/02 06:39:14;;;;;;;27.00;17.83;;;2.10;99.90;;;;;;5000209;28;20030;-79
2023/03/02 06:41:44;;;;;;;514.33;37.47;;;2.00;99.90;;;;;;4976190;28;20034;-80
2023/03/02 06:44:11;;;;;;;25.67;17.03;;;2.00;99.90;;;;;;5005890;28;20026;-78
2023/03/02 06:46:37;;;;;;;74.30;19.23;;;1.90;99.90;;;;;;5005643;28;20034;-77
2023/03/02 06:49:03;;;;;;;35.07;19.27;;;2.00;99.90;;;;;;4979274;28;20038;-77
2023/03/02 06:51:30;;;;;;;44.13;18.07;;;1.90;99.90;;;;;;4999665;28;20041;-78
2023/03/02 06:53:56;;;;;;;27.10;17.10;;;1.90;99.90;;;;;;4997526;28;20038;-77
2023/03/02 06:56:22;;;;;;;29.33;18.60;;;1.90;99.90;;;;;;4994908;28;20047;-78
2023/03/02 06:58:48;;;;;;;37.97;20.10;;;1.90;99.90;;;;;;4981961;28;20041;-77
2023/03/02 07:01:14;;;;;;;26.37;17.73;;;1.90;99.90;;;;;;5014599;28;20033;-78
2023/03/02 07:03:40;;;;;;;52.40;18.03;;;1.90;99.90;;;;;;4999957;28;20377;-76
2023/03/02 07:06:06;;;;;;;146.00;22.60;;;1.90;99.90;;;;;;4979567;28;20046;-79
2023/03/02 07:08:33;;;;;;;30.00;18.57;;;1.90;99.90;;;;;;4960416;28;20043;-77
2023/03/02 07:11:02;;;;;;;30.80;18.53;;;1.90;99.90;;;;;;4994637;28;20463;-77
2023/03/02 07:13:30;;;;;;;28.37;18.10;;;1.90;99.90;;;;;;4978882;28;20069;-78
2023/03/02 07:15:56;;;;;;;27.20;17.37;;;1.90;99.90;;;;;;4999796;28;20122;-77
2023/03/02 07:18:22;;;;;;;27.90;16.43;;;1.90;99.90;;;;;;4995435;28;20054;-78
2023/03/02 07:20:48;;;;;;;30.13;17.87;;;1.90;99.90;;;;;;4993679;28;20393;-81
2023/03/02 07:23:14;;;;;;;29.27;16.87;;;2.10;99.90;;;;;;4977714;28;20034;-85
2023/03/02 07:25:40;;;;;;;28.77;17.97;;;2.20;99.90;;;;;;4993010;28;20059;-83
2023/03/02 07:28:07;;;;;;;25.03;17.33;;;2.50;99.90;;;;;;4960425;28;20039;-83
2023/03/02 07:30:33;;;;;;;522.53;37.80;;;2.70;99.90;;;;;;4983434;28;20039;-82
2023/03/02 07:32:59;;;;;;;30.73;18.10;;;2.90;99.90;;;;;;4993215;28;20042;-86
2023/03/02 07:35:25;;;;;;;25.67;17.90;;;3.00;99.90;;;;;;4988011;28;20031;-86
2023/03/02 07:37:51;;;;;;;30.93;27.07;;;3.10;99.90;;;;;;4990399;28;20041;-85
2023/03/02 07:40:17;;;;;;;30.80;18.13;;;3.20;99.90;;;;;;4964486;28;20038;-85
2023/03/02 07:42:43;;;;;;;31.87;18.27;;;3.30;99.90;;;;;;4988946;28;20406;-87
2023/03/02 07:45:13;;;;;;;101.73;21.40;;;3.40;99.90;;;;;;4991046;28;20034;-85
2023/03/02 07:47:39;;;;;;;77.40;22.80;;;3.50;99.90;;;;;;5013750;28;20006;-86
2023/03/02 07:50:05;;;;;;;30.27;17.97;;;3.60;99.90;;;;;;5000477;28;20034;-85
2023/03/02 07:52:31;;;;;;;31.13;18.80;;;3.60;99.90;;;;;;4977438;28;20527;-86
2023/03/02 07:54:58;;;;;;;27.67;18.37;;;3.60;99.90;;;;;;4976988;28;20031;-88
2023/03/02 07:57:24;;;;;;;33.93;17.80;;;3.70;99.90;;;;;;4989408;28;20047;-90
2023/03/02 07:59:50;;;;;;;24.70;17.23;;;3.80;99.90;;;;;;4981140;28;20039;-91
2023/03/02 08:02:16;;;;;;;28.23;17.87;;;3.80;99.90;;;;;;5003213;28;20039;-90
2023/03/02 08:04:42;;;;;;;26.67;17.37;;;3.80;99.90;;;;;;4996834;28;20049;-92
2023/03/02 08:07:08;;;;;;;28.97;16.77;;;3.90;99.90;;;;;;4969012;28;20047;-90
2023/03/02 08:09:35;;;;;;;26.10;18.47;;;3.90;99.90;;;;;;5007744;28;20038;-87
2023/03/02 08:12:01;;;;;;;26.43;17.67;;;4.00;99.90;;;;;;4979115;28;20038;-90
2023/03/02 08:14:27;;;;;;;26.07;17.37;;;4.10;99.90;;;;;;4993830;28;20034;-89
2023/03/02 08:16:53;;;;;;;28.30;18.33;;;4.20;99.90;;;;;;4956337;28;20392;-89
2023/03/02 08:19:19;;;;;;;23.83;16.87;;;4.20;99.90;;;;;;4976759;28;20047;-84
2023/03/02 08:21:45;;;;;;;30.70;17.83;;;4.20;99.90;;;;;;4974033;28;20050;-88
2023/03/02 08:24:11;;;;;;;28.33;17.30;;;4.20;99.90;;;;;;4974325;28;20042;-86
2023/03/02 08:26:37;;;;;;;24.13;16.90;;;4.10;99.90;;;;;;4967233;28;20404;-89
2023/03/02 08:29:04;;;;;;;27.03;17.00;;;4.20;99.90;;;;;;4984145;28;20042;-89
2023/03/02 08:31:30;;;;;;;29.17;18.33;;;4.40;99.90;;;;;;4961059;28;20038;-89
2023/03/02 08:33:58;;;;;;;27.17;16.80;;;4.60;99.90;;;;;;4996078;28;20056;-89
2023/03/02 08:36:24;;;;;;;26.23;17.23;;;4.70;99.90;;;;;;4994434;28;20407;-88
2023/03/02 08:38:51;;;;;;;25.17;17.77;;;4.80;99.90;;;;;;4991440;28;20392;-88
2023/03/02 08:41:18;;;;;;;28.43;17.80;;;4.90;99.90;;;;;;4973820;28;20392;-89
2023/03/02 08:43:45;;;;;;;29.17;18.20;;;4.70;99.90;;;;;;4991289;28;20033;-87
2023/03/02 08:46:12;;;;;;;24.13;17.17;;;4.60;99.90;;;;;;4971923;28;20050;-88
2023/03/02 08:48:38;;;;;;;24.33;16.00;;;4.60;99.90;;;;;;4976966;28;20476;-87
2023/03/02 08:51:07;;;;;;;27.93;19.20;;;4.70;99.90;;;;;;4989991;28;20389;-87
2023/03/02 08:53:35;;;;;;;26.70;19.20;;;4.70;99.90;;;;;;4976875;28;20050;-89
2023/03/02 08:56:01;;;;;;;25.60;16.27;;;4.70;99.90;;;;;;4980250;28;20050;-86
2023/03/02 08:58:28;;;;;;;41.53;37.80;;;4.80;99.90;;;;;;5003844;28;20045;-87
2023/03/02 09:00:54;;;;;;;30.70;18.27;;;4.90;99.90;;;;;;5002773;28;20118;-85
2023/03/02 09:03:20;;;;;;;31.37;22.30;;;5.00;99.90;;;;;;4983788;28;20030;-89
2023/03/02 09:05:46;;;;;;;29.50;20.73;;;5.10;99.90;;;;;;4975076;28;20404;-85
2023/03/02 09:08:12;;;;;;;29.97;18.57;;;5.30;99.90;;;;;;4988823;28;20046;-84
2023/03/02 09:10:38;;;;;;;29.50;18.70;;;5.30;99.90;;;;;;4975918;28;20037;-85
2023/03/02 09:13:04;;;;;;;35.73;27.33;;;5.50;99.90;;;;;;5000429;28;20050;-86
2023/03/02 09:15:30;;;;;;;32.90;20.57;;;5.40;99.90;;;;;;5007546;28;20065;-89
2023/03/02 09:17:57;;;;;;;29.23;20.77;;;5.50;99.90;;;;;;4981123;28;20035;-90
2023/03/02 09:20:23;;;;;;;28.23;20.10;;;5.40;99.90;;;;;;4991946;28;20038;-89
2023/03/02 09:22:49;;;;;;;28.27;16.03;;;5.60;99.90;;;;;;4992580;28;20055;-85
2023/03/02 09:25:18;;;;;;;31.87;20.27;;;5.60;99.90;;;;;;4991307;28;20584;-86
2023/03/02 09:27:45;;;;;;;35.37;23.80;;;5.60;99.90;;;;;;4991576;28;20152;-85
2023/03/02 09:30:11;;;;;;;28.90;19.83;;;5.70;99.90;;;;;;4992791;28;20061;-88
2023/03/02 09:32:37;;;;;;;36.20;24.30;;;5.60;99.90;;;;;;4974669;28;20046;-88
2023/03/02 09:35:04;;;;;;;33.90;22.53;;;5.70;99.90;;;;;;5037221;28;20057;-86
2023/03/02 09:37:30;;;;;;;33.43;19.87;;;5.80;99.90;;;;;;4995296;28;20045;-87
2023/03/02 09:39:56;;;;;;;34.87;21.30;;;6.00;99.90;;;;;;5011500;28;20030;-87
2023/03/02 09:42:31;;;;;;;30.08;19.85;;;6.00;99.90;;;;;;4997337;28;20039;-86
2023/03/02 09:45:14;;;;;;;37.13;21.10;;;5.80;99.90;;;;;;4989778;28;20038;-88
2023/03/02 09:47:54;;;;;;;31.33;20.20;;;5.90;99.90;;;;;;4991158;28;20038;-87
2023/03/02 09:50:29;;;;;;;33.53;20.80;;;6.20;99.90;;;;;;4983708;28;20038;-87
2023/03/02 09:53:10;;;;;;;29.13;20.77;;;6.40;99.90;;;;;;4996352;28;20034;-87
2023/03/02 09:55:37;;;;;;;31.90;22.38;;;6.40;99.90;;;;;;5012167;28;20037;-88
2023/03/02 09:58:05;;;;;;;27.05;20.40;;;6.40;99.90;;;;;;5011762;28;20041;-89
2023/03/02 10:00:36;;;;;;;37.70;22.98;;;6.20;99.90;;;;;;4991049;28;20030;-88
2023/03/02 10:03:09;;;;;;;18.33;13.05;;;6.30;99.90;;;;;;4991443;28;20037;-87
2023/03/02 10:05:38;;;;;;;31.10;22.33;;;6.50;99.90;;;;;;4972148;28;20038;-86
2023/03/02 10:08:05;;;;;;;33.40;18.73;;;6.30;99.90;;;;;;4969005;28;20045;-85
2023/03/02 10:10:58;;;;;;;30.90;18.97;;;6.30;99.90;;;;;;4987050;28;20038;-85
2023/03/02 10:13:58;;;;;;;30.50;20.50;;;6.30;99.90;;;;;;5007017;28;20053;-86
2023/03/02 10:16:30;;;;;;;30.42;19.92;;;6.60;99.90;;;;;;4982164;28;20522;-85
2023/03/02 10:19:23;;;;;;;35.83;21.77;;;6.60;99.90;;;;;;4991017;28;20030;-85
2023/03/02 10:22:17;;;;;;;34.65;22.23;;;6.80;99.90;;;;;;4990755;28;20046;-86
2023/03/02 10:25:08;;;;;;;31.88;22.60;;;7.00;99.90;;;;;;4993516;28;20038;-85
2023/03/02 10:27:38;;;;;;;31.70;23.17;;;7.30;99.90;;;;;;4991828;28;20034;-85
2023/03/02 10:30:26;;;;;;;40.78;24.08;;;7.50;99.90;;;;;;4984532;28;21332;-83
2023/03/02 10:32:53;;;;;;;33.80;21.42;;;7.90;99.90;;;;;;4987298;28;20045;-84
2023/03/02 10:35:24;;;;;;;32.63;21.55;;;8.10;99.90;;;;;;4997565;28;20053;-86
2023/03/02 10:37:50;;;;;;;29.33;19.60;;;8.00;99.90;;;;;;4972079;28;20031;-85
2023/03/02 10:40:48;;;;;;;25.88;17.63;;;7.70;99.90;;;;;;4971723;28;20042;-84
2023/03/02 10:43:25;;;;;;;36.55;25.00;;;7.40;99.90;;;;;;4976631;28;20026;-85
2023/03/02 10:46:02;;;;;;;32.63;23.33;;;7.50;99.90;;;;;;4973148;28;20035;-84
2023/03/02 10:48:28;;;;;;;33.53;23.25;;;7.90;99.90;;;;;;4978620;28;20026;-87
2023/03/02 10:50:55;;;;;;;34.28;22.85;;;8.40;99.90;;;;;;5006074;28;20064;-90
2023/03/02 10:53:21;;;;;;;31.73;22.85;;;8.40;99.90;;;;;;5005516;28;20365;-90
2023/03/02 10:55:49;;;;;;;33.83;23.02;;;8.40;99.90;;;;;;4985453;28;20041;-87
2023/03/02 10:58:29;;;;;;;32.75;24.83;;;8.30;99.90;;;;;;4986175;28;20038;-88
2023/03/02 11:01:06;;;;;;;45.42;28.48;;;8.40;99.90;;;;;;4995424;28;20034;-90
2023/03/02 11:03:32;;;;;;;39.10;27.15;;;8.60;99.90;;;;;;4979588;28;20041;-90
2023/03/02 11:06:09;;;;;;;45.88;25.92;;;8.70;99.90;;;;;;4979174;28;20376;-91
2023/03/02 11:08:35;;;;;;;40.05;25.55;;;8.80;99.90;;;;;;4982503;28;20027;-90
2023/03/02 11:11:02;;;;;;;119.55;31.35;;;8.40;99.90;;;;;;4991407;28;20030;-86
2023/03/02 11:13:31;;;;;;;38.90;25.10;;;8.50;99.90;;;;;;4958650;28;20043;-84
2023/03/02 11:16:01;;;;;;;34.42;22.80;;;8.80;99.90;;;;;;4977577;28;20037;-85
2023/03/02 11:18:59;;;;;;;33.60;25.20;;;9.00;99.90;;;;;;4994082;28;20484;-84
2023/03/02 11:21:48;;;;;;;35.30;25.00;;;8.80;99.90;;;;;;4992992;28;20313;-83
2023/03/02 11:24:18;;;;;;;32.63;23.70;;;8.90;99.90;;;;;;4993306;28;20022;-84
2023/03/02 11:26:50;;;;;;;29.17;19.17;;;9.00;99.90;;;;;;4977728;28;20433;-84
2023/03/02 11:29:55;;;;;;;31.48;19.65;;;9.00;99.90;;;;;;4993716;28;20058;-83
2023/03/02 11:32:28;;;;;;;26.92;19.52;;;8.70;99.90;;;;;;4994104;28;20038;-83
2023/03/02 11:34:55;;;;;;;33.47;24.00;;;8.90;99.90;;;;;;4986582;28;20046;-84
2023/03/02 11:37:23;;;;;;;37.03;25.63;;;9.00;99.90;;;;;;4968756;28;20054;-83
2023/03/02 11:39:49;;;;;;;33.40;25.65;;;9.20;99.90;;;;;;4977455;28;20039;-84
2023/03/02 11:42:33;;;;;;;34.95;22.67;;;9.30;99.90;;;;;;4992559;28;20030;-85
2023/03/02 11:45:15;;;;;;;30.88;22.65;;;9.10;99.90;;;;;;4977296;28;20045;-84
2023/03/02 11:47:48;;;;;;;34.72;23.58;;;9.10;99.90;;;;;;4994007;28;20041;-84
2023/03/02 11:50:14;;;;;;;35.20;25.48;;;9.10;99.90;;;;;;5006553;28;20046;-88
2023/03/02 11:52:46;;;;;;;34.58;24.88;;;9.30;99.90;;;;;;5009365;28;20450;-87
2023/03/02 11:55:23;;;;;;;37.75;26.05;;;9.40;99.90;;;;;;5009714;28;20034;-85
2023/03/02 11:57:54;;;;;;;31.95;23.25;;;9.60;99.90;;;;;;5024349;28;20472;-84
2023/03/02 12:00:23;;;;;;;35.55;24.58;;;9.60;99.90;;;;;;4976822;28;20042;-85
2023/03/02 12:03:00;;;;;;;36.83;25.30;;;9.40;99.90;;;;;;5005941;28;20056;-84
2023/03/02 12:05:27;;;;;;;37.15;25.20;;;9.40;99.90;;;;;;4993489;28;20488;-84
2023/03/02 12:08:01;;;;;;;35.15;23.77;;;9.40;99.90;;;;;;5008039;28;20129;-84
2023/03/02 12:10:38;;;;;;;35.17;24.92;;;9.50;99.90;;;;;;5009020;28;20041;-84
2023/03/02 12:13:18;;;;;;;34.40;24.08;;;9.70;99.90;;;;;;5035517;28;20045;-84
2023/03/02 12:15:46;;;;;;;33.63;23.77;;;9.80;99.90;;;;;;5012315;28;20046;-88
2023/03/02 12:18:21;;;;;;;32.88;24.35;;;10.00;99.90;;;;;;5009608;28;20038;-89
2023/03/02 12:21:20;;;;;;;34.97;23.67;;;10.00;99.90;;;;;;4998884;28;20042;-89
2023/03/02 12:23:49;;;;;;;36.42;23.30;;;10.00;99.90;;;;;;4995601;28;20038;-85
2023/03/02 12:26:18;;;;;;;31.35;18.45;;;9.90;99.90;;;;;;5003811;28;20356;-85
2023/03/02 12:29:04;;;;;;;191.73;30.08;;;9.80;99.90;;;;;;5013970;28;20030;-86
2023/03/02 12:31:47;;;;;;;98.47;27.70;;;9.70;99.90;;;;;;5044821;28;20042;-86
2023/03/02 12:34:30;;;;;;;54.38;25.10;;;9.70;99.90;;;;;;5047045;28;20045;-86
2023/03/02 12:37:17;;;;;;;51.85;25.50;;;9.80;99.90;;;;;;5031724;28;20048;-91
2023/03/02 12:39:43;;;;;;;36.88;25.65;;;9.90;99.90;;;;;;5047826;28;20033;-92
2023/03/02 12:42:19;;;;;;;53.30;26.33;;;10.10;99.90;;;;;;5012948;28;20037;-91
2023/03/02 12:45:03;;;;;;;34.47;24.45;;;10.20;99.90;;;;;;5045442;28;20044;-85
2023/03/02 12:47:29;;;;;;;46.58;24.02;;;10.20;99.90;;;;;;5010986;28;20034;-86